This is the latest recevied weather packets stored in our database for station/object IR3AS. If no packets are shown the sender has not sent any weather packets the latest 10 day(s).
| Time | Temp. | Humidity | Pressure | Rain* | Wind** | Luminosity | Snow |
|---|---|---|---|---|---|---|---|
| 1777722359 | 10.56° C | 56% | 863.5 hPa | 0 mm | - | - | - |
| 1777722059 | 10.56° C | 56% | 863.5 hPa | 0 mm | - | - | - |
| 1777721759 | 10.56° C | 55% | 863.7 hPa | 0 mm | - | - | - |
| 1777721459 | 11.11° C | 55% | 864 hPa | 0 mm | - | - | - |
| 1777721159 | 11.11° C | 54% | 863.5 hPa | 0 mm | - | - | - |
| 1777720859 | 11.67° C | 53% | 863.7 hPa | 0 mm | - | - | - |
| 1777720559 | 12.22° C | 51% | 863.9 hPa | 0 mm | - | - | - |
| 1777720259 | 12.22° C | 53% | 864 hPa | 0 mm | - | - | - |
| 1777719959 | 11.11° C | 54% | 864.2 hPa | 0 mm | - | - | - |
| 1777719659 | 11.67° C | 53% | 864 hPa | 0 mm | - | - | - |
| 1777719403 | 11.67° C | 54% | 864.3 hPa | 0 mm | - | - | - |
| 1777719359 | 11.67° C | 54% | 864.3 hPa | 0 mm | - | - | - |
| 1777719059 | 11.11° C | 55% | 864.2 hPa | 0 mm | - | - | - |
| 1777718759 | 10° C | 57% | 864.3 hPa | 0 mm | - | - | - |
| 1777718459 | 8.89° C | 60% | 864.3 hPa | 0 mm | - | - | - |
| 1777718159 | 7.78° C | 60% | 864.2 hPa | 0 mm | - | - | - |
| 1777717859 | 7.78° C | 59% | 864.3 hPa | 0 mm | - | - | - |
| 1777717559 | 7.78° C | 60% | 864.3 hPa | 0 mm | - | - | - |
| 1777717259 | 7.22° C | 60% | 864.5 hPa | 0 mm | - | - | - |
| 1777716959 | 6.67° C | 60% | 864.5 hPa | 0 mm | - | - | - |
| 1777716659 | 6.67° C | 60% | 864.6 hPa | 0 mm | - | - | - |
| 1777716393 | 6.67° C | 60% | 864.8 hPa | 0 mm | - | - | - |
| 1777716359 | 6.67° C | 60% | 864.8 hPa | 0 mm | - | - | - |
| 1777716059 | 6.67° C | 59% | 864.6 hPa | 0 mm | - | - | - |
| 1777715759 | 6.11° C | 58% | 864.6 hPa | 0 mm | - | - | - |
* Rain latest hour (hover to see other rain measurements)
** Current wind speed in m/s (hover to see current wind gust speed)